sensor_id;sensor_type;location;lat;lon;timestamp;P1;durP1;ratioP1;P2;durP2;ratioP2
53293;SDS011;39181;53.440;5.644;2023-09-12T00:01:40;20.42;;;14.43;;
53293;SDS011;39181;53.440;5.644;2023-09-12T00:04:06;16.77;;;13.93;;
53293;SDS011;39181;53.440;5.644;2023-09-12T00:06:31;16.20;;;13.57;;
53293;SDS011;39181;53.440;5.644;2023-09-12T00:08:57;18.25;;;13.32;;
53293;SDS011;39181;53.440;5.644;2023-09-12T00:11:22;22.95;;;15.00;;
53293;SDS011;39181;53.440;5.644;2023-09-12T00:13:51;22.88;;;15.23;;
53293;SDS011;39181;53.440;5.644;2023-09-12T00:16:17;20.60;;;15.25;;
53293;SDS011;39181;53.440;5.644;2023-09-12T00:18:42;19.17;;;13.70;;
53293;SDS011;39181;53.440;5.644;2023-09-12T00:21:08;20.48;;;14.50;;
53293;SDS011;39181;53.440;5.644;2023-09-12T00:23:34;20.70;;;14.20;;
53293;SDS011;39181;53.440;5.644;2023-09-12T00:25:59;19.25;;;14.45;;
53293;SDS011;39181;53.440;5.644;2023-09-12T00:28:25;21.10;;;14.25;;
53293;SDS011;39181;53.440;5.644;2023-09-12T00:30:51;19.10;;;15.18;;
53293;SDS011;39181;53.440;5.644;2023-09-12T00:33:17;18.83;;;15.15;;
53293;SDS011;39181;53.440;5.644;2023-09-12T00:35:43;20.30;;;15.52;;
53293;SDS011;39181;53.440;5.644;2023-09-12T00:38:09;18.80;;;14.10;;
53293;SDS011;39181;53.440;5.644;2023-09-12T00:40:35;21.45;;;15.38;;
53293;SDS011;39181;53.440;5.644;2023-09-12T00:43:00;22.42;;;16.17;;
53293;SDS011;39181;53.440;5.644;2023-09-12T00:45:26;22.20;;;16.73;;
53293;SDS011;39181;53.440;5.644;2023-09-12T00:47:51;23.95;;;17.10;;
53293;SDS011;39181;53.440;5.644;2023-09-12T00:50:18;18.95;;;16.13;;
53293;SDS011;39181;53.440;5.644;2023-09-12T00:52:45;23.55;;;16.02;;
53293;SDS011;39181;53.440;5.644;2023-09-12T00:55:12;23.45;;;16.15;;
53293;SDS011;39181;53.440;5.644;2023-09-12T00:57:37;23.33;;;16.77;;
53293;SDS011;39181;53.440;5.644;2023-09-12T01:00:04;27.02;;;16.55;;
53293;SDS011;39181;53.440;5.644;2023-09-12T01:02:46;21.02;;;17.00;;
53293;SDS011;39181;53.440;5.644;2023-09-12T01:05:13;24.05;;;16.92;;
53293;SDS011;39181;53.440;5.644;2023-09-12T01:07:40;26.35;;;15.95;;
53293;SDS011;39181;53.440;5.644;2023-09-12T01:10:07;23.13;;;15.82;;
53293;SDS011;39181;53.440;5.644;2023-09-12T01:12:34;19.42;;;13.77;;
53293;SDS011;39181;53.440;5.644;2023-09-12T01:14:59;19.85;;;13.85;;
53293;SDS011;39181;53.440;5.644;2023-09-12T01:17:25;19.05;;;13.15;;
53293;SDS011;39181;53.440;5.644;2023-09-12T01:19:52;18.83;;;13.25;;
53293;SDS011;39181;53.440;5.644;2023-09-12T01:22:34;16.35;;;13.00;;
53293;SDS011;39181;53.440;5.644;2023-09-12T01:25:34;18.20;;;12.88;;
53293;SDS011;39181;53.440;5.644;2023-09-12T01:28:14;16.98;;;13.02;;
53293;SDS011;39181;53.440;5.644;2023-09-12T01:30:42;21.08;;;13.25;;
53293;SDS011;39181;53.440;5.644;2023-09-12T01:33:08;17.35;;;12.80;;
53293;SDS011;39181;53.440;5.644;2023-09-12T01:35:35;16.65;;;12.80;;
53293;SDS011;39181;53.440;5.644;2023-09-12T01:38:00;16.67;;;13.18;;
53293;SDS011;39181;53.440;5.644;2023-09-12T01:40:46;23.52;;;13.75;;
53293;SDS011;39181;53.440;5.644;2023-09-12T01:43:15;19.33;;;14.40;;
53293;SDS011;39181;53.440;5.644;2023-09-12T01:45:42;23.00;;;14.95;;
53293;SDS011;39181;53.440;5.644;2023-09-12T01:48:09;20.23;;;14.57;;
53293;SDS011;39181;53.440;5.644;2023-09-12T01:50:37;21.40;;;14.63;;
53293;SDS011;39181;53.440;5.644;2023-09-12T01:53:04;21.05;;;15.30;;
53293;SDS011;39181;53.440;5.644;2023-09-12T01:55:29;21.08;;;16.33;;
53293;SDS011;39181;53.440;5.644;2023-09-12T01:57:56;28.33;;;16.95;;
53293;SDS011;39181;53.440;5.644;2023-09-12T02:00:23;23.70;;;17.88;;
53293;SDS011;39181;53.440;5.644;2023-09-12T02:02:49;24.38;;;17.15;;
53293;SDS011;39181;53.440;5.644;2023-09-12T02:05:16;28.20;;;17.27;;
53293;SDS011;39181;53.440;5.644;2023-09-12T02:07:44;24.52;;;18.40;;
53293;SDS011;39181;53.440;5.644;2023-09-12T02:10:10;25.05;;;17.95;;
53293;SDS011;39181;53.440;5.644;2023-09-12T02:12:36;29.58;;;19.58;;
53293;SDS011;39181;53.440;5.644;2023-09-12T02:15:02;27.60;;;19.75;;
53293;SDS011;39181;53.440;5.644;2023-09-12T02:17:28;27.25;;;18.48;;
53293;SDS011;39181;53.440;5.644;2023-09-12T02:19:54;25.15;;;16.38;;
53293;SDS011;39181;53.440;5.644;2023-09-12T02:22:19;20.77;;;14.25;;
53293;SDS011;39181;53.440;5.644;2023-09-12T02:24:45;21.27;;;14.13;;
53293;SDS011;39181;53.440;5.644;2023-09-12T02:27:10;17.92;;;14.30;;
53293;SDS011;39181;53.440;5.644;2023-09-12T02:29:37;18.98;;;14.68;;
53293;SDS011;39181;53.440;5.644;2023-09-12T02:32:06;20.75;;;15.40;;
53293;SDS011;39181;53.440;5.644;2023-09-12T02:34:32;23.42;;;14.73;;
53293;SDS011;39181;53.440;5.644;2023-09-12T02:36:58;24.45;;;16.02;;
53293;SDS011;39181;53.440;5.644;2023-09-12T02:39:23;25.25;;;15.90;;
53293;SDS011;39181;53.440;5.644;2023-09-12T02:41:49;22.25;;;16.63;;
53293;SDS011;39181;53.440;5.644;2023-09-12T02:44:15;26.48;;;18.60;;
53293;SDS011;39181;53.440;5.644;2023-09-12T02:46:41;25.52;;;19.10;;
53293;SDS011;39181;53.440;5.644;2023-09-12T02:49:06;27.25;;;20.08;;
53293;SDS011;39181;53.440;5.644;2023-09-12T02:51:32;28.50;;;19.58;;
53293;SDS011;39181;53.440;5.644;2023-09-12T02:53:57;27.77;;;21.33;;
53293;SDS011;39181;53.440;5.644;2023-09-12T02:56:23;28.75;;;19.73;;
53293;SDS011;39181;53.440;5.644;2023-09-12T02:58:49;30.98;;;21.08;;
53293;SDS011;39181;53.440;5.644;2023-09-12T03:01:15;29.48;;;20.55;;
53293;SDS011;39181;53.440;5.644;2023-09-12T03:03:41;31.80;;;21.88;;
53293;SDS011;39181;53.440;5.644;2023-09-12T03:06:07;27.23;;;20.33;;
53293;SDS011;39181;53.440;5.644;2023-09-12T03:08:32;31.52;;;20.63;;
53293;SDS011;39181;53.440;5.644;2023-09-12T03:10:58;35.97;;;22.63;;
53293;SDS011;39181;53.440;5.644;2023-09-12T03:13:25;34.72;;;22.35;;
53293;SDS011;39181;53.440;5.644;2023-09-12T03:15:50;35.95;;;23.15;;
53293;SDS011;39181;53.440;5.644;2023-09-12T03:18:16;36.70;;;23.73;;
53293;SDS011;39181;53.440;5.644;2023-09-12T03:20:42;37.03;;;25.08;;
53293;SDS011;39181;53.440;5.644;2023-09-12T03:23:08;53.38;;;31.98;;
53293;SDS011;39181;53.440;5.644;2023-09-12T03:25:37;54.83;;;31.98;;
53293;SDS011;39181;53.440;5.644;2023-09-12T03:28:03;50.90;;;29.60;;
53293;SDS011;39181;53.440;5.644;2023-09-12T03:30:30;47.60;;;31.73;;
53293;SDS011;39181;53.440;5.644;2023-09-12T03:33:00;52.58;;;30.55;;
53293;SDS011;39181;53.440;5.644;2023-09-12T03:35:26;50.42;;;30.77;;
53293;SDS011;39181;53.440;5.644;2023-09-12T03:37:53;49.28;;;30.15;;
53293;SDS011;39181;53.440;5.644;2023-09-12T03:40:19;45.58;;;29.63;;
53293;SDS011;39181;53.440;5.644;2023-09-12T03:42:44;47.58;;;28.83;;
53293;SDS011;39181;53.440;5.644;2023-09-12T03:45:10;48.55;;;30.02;;
53293;SDS011;39181;53.440;5.644;2023-09-12T03:47:36;49.22;;;28.77;;
53293;SDS011;39181;53.440;5.644;2023-09-12T03:50:01;45.58;;;28.75;;
53293;SDS011;39181;53.440;5.644;2023-09-12T03:52:27;47.30;;;28.33;;
53293;SDS011;39181;53.440;5.644;2023-09-12T03:54:53;45.97;;;30.40;;
53293;SDS011;39181;53.440;5.644;2023-09-12T03:57:18;46.92;;;29.25;;
53293;SDS011;39181;53.440;5.644;2023-09-12T03:59:44;49.05;;;29.60;;
53293;SDS011;39181;53.440;5.644;2023-09-12T04:02:11;46.70;;;28.63;;
53293;SDS011;39181;53.440;5.644;2023-09-12T04:04:37;47.65;;;30.05;;
53293;SDS011;39181;53.440;5.644;2023-09-12T04:07:03;48.83;;;28.42;;
53293;SDS011;39181;53.440;5.644;2023-09-12T04:09:29;47.42;;;30.63;;
53293;SDS011;39181;53.440;5.644;2023-09-12T04:11:55;43.97;;;28.77;;
53293;SDS011;39181;53.440;5.644;2023-09-12T04:14:21;44.17;;;29.38;;
53293;SDS011;39181;53.440;5.644;2023-09-12T04:16:47;48.70;;;28.20;;
53293;SDS011;39181;53.440;5.644;2023-09-12T04:19:15;42.95;;;29.60;;
53293;SDS011;39181;53.440;5.644;2023-09-12T04:21:41;44.47;;;29.13;;
53293;SDS011;39181;53.440;5.644;2023-09-12T04:24:07;40.97;;;28.05;;
53293;SDS011;39181;53.440;5.644;2023-09-12T04:26:33;42.08;;;27.13;;
53293;SDS011;39181;53.440;5.644;2023-09-12T04:28:58;45.03;;;27.73;;
53293;SDS011;39181;53.440;5.644;2023-09-12T04:31:24;44.10;;;27.52;;
53293;SDS011;39181;53.440;5.644;2023-09-12T04:33:50;37.97;;;25.45;;
53293;SDS011;39181;53.440;5.644;2023-09-12T04:36:17;41.75;;;27.88;;
53293;SDS011;39181;53.440;5.644;2023-09-12T04:38:43;41.30;;;27.50;;
53293;SDS011;39181;53.440;5.644;2023-09-12T04:41:08;42.42;;;27.27;;
53293;SDS011;39181;53.440;5.644;2023-09-12T04:43:39;42.25;;;26.83;;
53293;SDS011;39181;53.440;5.644;2023-09-12T04:46:04;43.78;;;28.40;;
53293;SDS011;39181;53.440;5.644;2023-09-12T04:48:30;45.55;;;27.95;;
53293;SDS011;39181;53.440;5.644;2023-09-12T04:50:56;40.22;;;27.05;;
53293;SDS011;39181;53.440;5.644;2023-09-12T04:53:22;42.58;;;27.63;;
53293;SDS011;39181;53.440;5.644;2023-09-12T04:55:47;41.65;;;26.65;;
53293;SDS011;39181;53.440;5.644;2023-09-12T04:58:13;41.38;;;27.27;;
53293;SDS011;39181;53.440;5.644;2023-09-12T05:00:39;41.85;;;27.42;;
53293;SDS011;39181;53.440;5.644;2023-09-12T05:03:05;41.55;;;26.65;;
53293;SDS011;39181;53.440;5.644;2023-09-12T05:05:33;44.63;;;26.67;;
53293;SDS011;39181;53.440;5.644;2023-09-12T05:08:00;39.97;;;26.35;;
53293;SDS011;39181;53.440;5.644;2023-09-12T05:10:25;45.05;;;28.50;;
53293;SDS011;39181;53.440;5.644;2023-09-12T05:12:51;42.40;;;28.45;;
53293;SDS011;39181;53.440;5.644;2023-09-12T05:15:16;40.35;;;27.00;;
53293;SDS011;39181;53.440;5.644;2023-09-12T05:17:42;37.08;;;25.58;;
53293;SDS011;39181;53.440;5.644;2023-09-12T05:20:08;44.42;;;26.98;;
53293;SDS011;39181;53.440;5.644;2023-09-12T05:22:34;46.95;;;27.90;;
53293;SDS011;39181;53.440;5.644;2023-09-12T05:24:59;46.03;;;30.00;;
53293;SDS011;39181;53.440;5.644;2023-09-12T05:27:25;42.45;;;28.88;;
53293;SDS011;39181;53.440;5.644;2023-09-12T05:29:50;45.65;;;29.38;;
53293;SDS011;39181;53.440;5.644;2023-09-12T05:32:16;46.88;;;28.83;;
53293;SDS011;39181;53.440;5.644;2023-09-12T05:34:41;48.63;;;29.92;;
53293;SDS011;39181;53.440;5.644;2023-09-12T05:37:07;44.38;;;29.88;;
53293;SDS011;39181;53.440;5.644;2023-09-12T05:39:32;52.45;;;32.40;;
53293;SDS011;39181;53.440;5.644;2023-09-12T05:41:58;35.65;;;23.67;;
53293;SDS011;39181;53.440;5.644;2023-09-12T05:44:23;28.05;;;20.27;;
53293;SDS011;39181;53.440;5.644;2023-09-12T05:46:49;27.70;;;17.77;;
53293;SDS011;39181;53.440;5.644;2023-09-12T05:49:15;30.95;;;18.95;;
53293;SDS011;39181;53.440;5.644;2023-09-12T05:51:40;27.20;;;17.50;;
53293;SDS011;39181;53.440;5.644;2023-09-12T05:54:07;24.58;;;17.73;;
53293;SDS011;39181;53.440;5.644;2023-09-12T05:56:33;26.95;;;16.52;;
53293;SDS011;39181;53.440;5.644;2023-09-12T05:58:59;24.67;;;15.23;;
53293;SDS011;39181;53.440;5.644;2023-09-12T06:01:25;22.88;;;14.55;;
53293;SDS011;39181;53.440;5.644;2023-09-12T06:03:50;25.17;;;15.57;;
53293;SDS011;39181;53.440;5.644;2023-09-12T06:06:16;23.05;;;14.43;;
53293;SDS011;39181;53.440;5.644;2023-09-12T06:08:42;23.65;;;15.13;;
53293;SDS011;39181;53.440;5.644;2023-09-12T06:11:07;22.02;;;13.65;;
53293;SDS011;39181;53.440;5.644;2023-09-12T06:13:33;21.05;;;11.75;;
53293;SDS011;39181;53.440;5.644;2023-09-12T06:16:02;22.90;;;12.88;;
53293;SDS011;39181;53.440;5.644;2023-09-12T06:18:31;22.58;;;13.45;;
53293;SDS011;39181;53.440;5.644;2023-09-12T06:20:58;28.80;;;14.85;;
53293;SDS011;39181;53.440;5.644;2023-09-12T06:23:24;23.02;;;13.45;;
53293;SDS011;39181;53.440;5.644;2023-09-12T06:25:49;19.75;;;13.13;;
53293;SDS011;39181;53.440;5.644;2023-09-12T06:28:24;23.95;;;12.50;;
53293;SDS011;39181;53.440;5.644;2023-09-12T06:30:50;18.50;;;10.30;;
53293;SDS011;39181;53.440;5.644;2023-09-12T06:33:16;16.75;;;10.73;;
53293;SDS011;39181;53.440;5.644;2023-09-12T06:35:41;20.60;;;12.32;;
53293;SDS011;39181;53.440;5.644;2023-09-12T06:38:07;20.20;;;10.10;;
53293;SDS011;39181;53.440;5.644;2023-09-12T06:40:32;18.48;;;9.57;;
53293;SDS011;39181;53.440;5.644;2023-09-12T06:42:58;14.70;;;9.63;;
53293;SDS011;39181;53.440;5.644;2023-09-12T06:45:23;14.68;;;8.82;;
53293;SDS011;39181;53.440;5.644;2023-09-12T06:47:49;17.20;;;10.05;;
53293;SDS011;39181;53.440;5.644;2023-09-12T06:50:14;17.63;;;9.05;;
53293;SDS011;39181;53.440;5.644;2023-09-12T06:52:40;19.90;;;9.82;;
53293;SDS011;39181;53.440;5.644;2023-09-12T06:55:06;20.17;;;9.57;;
53293;SDS011;39181;53.440;5.644;2023-09-12T06:57:32;19.30;;;10.10;;
53293;SDS011;39181;53.440;5.644;2023-09-12T06:59:57;19.30;;;9.35;;
53293;SDS011;39181;53.440;5.644;2023-09-12T07:02:23;18.10;;;9.60;;
53293;SDS011;39181;53.440;5.644;2023-09-12T07:04:48;18.90;;;8.70;;
53293;SDS011;39181;53.440;5.644;2023-09-12T07:07:14;20.77;;;8.80;;
53293;SDS011;39181;53.440;5.644;2023-09-12T07:09:40;15.88;;;8.60;;
53293;SDS011;39181;53.440;5.644;2023-09-12T07:12:05;20.30;;;9.32;;
53293;SDS011;39181;53.440;5.644;2023-09-12T07:14:31;14.77;;;7.90;;
53293;SDS011;39181;53.440;5.644;2023-09-12T07:16:57;16.90;;;8.98;;
53293;SDS011;39181;53.440;5.644;2023-09-12T07:19:22;20.35;;;8.00;;
53293;SDS011;39181;53.440;5.644;2023-09-12T07:21:49;12.23;;;8.35;;
53293;SDS011;39181;53.440;5.644;2023-09-12T07:24:14;18.05;;;8.40;;
53293;SDS011;39181;53.440;5.644;2023-09-12T07:26:40;18.35;;;7.97;;
53293;SDS011;39181;53.440;5.644;2023-09-12T07:29:05;18.10;;;8.35;;
53293;SDS011;39181;53.440;5.644;2023-09-12T07:31:31;17.17;;;9.02;;
53293;SDS011;39181;53.440;5.644;2023-09-12T07:33:57;15.35;;;7.85;;
53293;SDS011;39181;53.440;5.644;2023-09-12T07:36:22;17.80;;;8.27;;
53293;SDS011;39181;53.440;5.644;2023-09-12T07:38:48;20.60;;;8.68;;
53293;SDS011;39181;53.440;5.644;2023-09-12T07:41:13;15.18;;;8.02;;
53293;SDS011;39181;53.440;5.644;2023-09-12T07:43:39;16.27;;;8.80;;
53293;SDS011;39181;53.440;5.644;2023-09-12T07:46:05;16.27;;;8.80;;
53293;SDS011;39181;53.440;5.644;2023-09-12T07:48:30;18.02;;;8.93;;
53293;SDS011;39181;53.440;5.644;2023-09-12T07:50:57;15.68;;;7.35;;
53293;SDS011;39181;53.440;5.644;2023-09-12T07:53:22;14.45;;;7.50;;
53293;SDS011;39181;53.440;5.644;2023-09-12T07:55:48;20.60;;;8.60;;
53293;SDS011;39181;53.440;5.644;2023-09-12T07:58:14;15.48;;;7.68;;
53293;SDS011;39181;53.440;5.644;2023-09-12T08:00:41;14.75;;;8.20;;
53293;SDS011;39181;53.440;5.644;2023-09-12T08:03:06;14.90;;;8.10;;
53293;SDS011;39181;53.440;5.644;2023-09-12T08:05:32;13.60;;;7.28;;
53293;SDS011;39181;53.440;5.644;2023-09-12T08:07:58;12.07;;;6.65;;
53293;SDS011;39181;53.440;5.644;2023-09-12T08:10:23;8.32;;;6.22;;
53293;SDS011;39181;53.440;5.644;2023-09-12T08:12:49;11.05;;;5.95;;
53293;SDS011;39181;53.440;5.644;2023-09-12T08:15:14;13.70;;;6.60;;
53293;SDS011;39181;53.440;5.644;2023-09-12T08:17:40;11.52;;;5.78;;
53293;SDS011;39181;53.440;5.644;2023-09-12T08:20:06;15.95;;;6.43;;
53293;SDS011;39181;53.440;5.644;2023-09-12T08:22:35;13.48;;;6.18;;
53293;SDS011;39181;53.440;5.644;2023-09-12T08:25:01;14.20;;;6.47;;
53293;SDS011;39181;53.440;5.644;2023-09-12T08:27:27;10.65;;;6.25;;
53293;SDS011;39181;53.440;5.644;2023-09-12T08:29:52;11.55;;;5.95;;
53293;SDS011;39181;53.440;5.644;2023-09-12T08:32:18;11.77;;;6.10;;
53293;SDS011;39181;53.440;5.644;2023-09-12T08:34:43;17.60;;;7.47;;
53293;SDS011;39181;53.440;5.644;2023-09-12T08:37:10;12.82;;;6.28;;
53293;SDS011;39181;53.440;5.644;2023-09-12T08:39:40;14.45;;;6.57;;
53293;SDS011;39181;53.440;5.644;2023-09-12T08:42:13;10.23;;;5.85;;
53293;SDS011;39181;53.440;5.644;2023-09-12T08:44:43;11.63;;;5.32;;
53293;SDS011;39181;53.440;5.644;2023-09-12T08:47:09;13.00;;;5.82;;
53293;SDS011;39181;53.440;5.644;2023-09-12T08:49:36;11.27;;;5.68;;
53293;SDS011;39181;53.440;5.644;2023-09-12T08:52:03;9.88;;;5.05;;
53293;SDS011;39181;53.440;5.644;2023-09-12T08:54:29;10.25;;;5.07;;
53293;SDS011;39181;53.440;5.644;2023-09-12T08:56:55;11.73;;;5.35;;
53293;SDS011;39181;53.440;5.644;2023-09-12T08:59:22;10.15;;;4.40;;
53293;SDS011;39181;53.440;5.644;2023-09-12T09:01:48;9.75;;;4.60;;
53293;SDS011;39181;53.440;5.644;2023-09-12T09:04:17;6.85;;;4.90;;
53293;SDS011;39181;53.440;5.644;2023-09-12T09:06:44;8.00;;;4.32;;
53293;SDS011;39181;53.440;5.644;2023-09-12T09:09:11;8.45;;;4.50;;
53293;SDS011;39181;53.440;5.644;2023-09-12T09:11:37;11.70;;;4.38;;
53293;SDS011;39181;53.440;5.644;2023-09-12T09:14:03;8.18;;;4.07;;
53293;SDS011;39181;53.440;5.644;2023-09-12T09:16:29;8.35;;;4.38;;
53293;SDS011;39181;53.440;5.644;2023-09-12T09:18:59;7.65;;;3.85;;
53293;SDS011;39181;53.440;5.644;2023-09-12T09:21:28;5.65;;;3.97;;
53293;SDS011;39181;53.440;5.644;2023-09-12T09:23:57;7.55;;;4.03;;
53293;SDS011;39181;53.440;5.644;2023-09-12T09:26:44;4.55;;;3.50;;
53293;SDS011;39181;53.440;5.644;2023-09-12T09:29:19;8.18;;;4.03;;
53293;SDS011;39181;53.440;5.644;2023-09-12T09:31:49;5.70;;;4.10;;
53293;SDS011;39181;53.440;5.644;2023-09-12T09:34:17;6.13;;;3.67;;
53293;SDS011;39181;53.440;5.644;2023-09-12T09:36:44;6.47;;;3.83;;
53293;SDS011;39181;53.440;5.644;2023-09-12T09:39:12;5.03;;;3.55;;
53293;SDS011;39181;53.440;5.644;2023-09-12T09:41:39;5.25;;;3.75;;
53293;SDS011;39181;53.440;5.644;2023-09-12T09:44:05;7.95;;;4.10;;
53293;SDS011;39181;53.440;5.644;2023-09-12T09:46:32;6.40;;;4.00;;
53293;SDS011;39181;53.440;5.644;2023-09-12T09:48:58;8.70;;;4.03;;
53293;SDS011;39181;53.440;5.644;2023-09-12T09:51:25;10.25;;;4.03;;
53293;SDS011;39181;53.440;5.644;2023-09-12T09:53:54;5.75;;;4.10;;
53293;SDS011;39181;53.440;5.644;2023-09-12T09:56:23;8.23;;;4.75;;
53293;SDS011;39181;53.440;5.644;2023-09-12T10:01:16;8.13;;;4.40;;
53293;SDS011;39181;53.440;5.644;2023-09-12T10:03:45;9.68;;;4.57;;
53293;SDS011;39181;53.440;5.644;2023-09-12T10:06:15;8.75;;;4.13;;
53293;SDS011;39181;53.440;5.644;2023-09-12T10:08:43;7.07;;;5.13;;
53293;SDS011;39181;53.440;5.644;2023-09-12T10:11:10;6.90;;;4.38;;
53293;SDS011;39181;53.440;5.644;2023-09-12T10:13:45;7.57;;;4.95;;
53293;SDS011;39181;53.440;5.644;2023-09-12T10:16:14;8.90;;;4.57;;
53293;SDS011;39181;53.440;5.644;2023-09-12T10:18:43;8.20;;;4.93;;
53293;SDS011;39181;53.440;5.644;2023-09-12T10:21:15;8.52;;;4.95;;
53293;SDS011;39181;53.440;5.644;2023-09-12T10:23:46;5.82;;;4.55;;
53293;SDS011;39181;53.440;5.644;2023-09-12T10:26:15;8.40;;;5.07;;
53293;SDS011;39181;53.440;5.644;2023-09-12T10:28:42;9.77;;;5.43;;
53293;SDS011;39181;53.440;5.644;2023-09-12T10:31:08;8.50;;;4.95;;
53293;SDS011;39181;53.440;5.644;2023-09-12T10:33:36;8.20;;;4.97;;
53293;SDS011;39181;53.440;5.644;2023-09-12T10:36:03;7.53;;;4.70;;
53293;SDS011;39181;53.440;5.644;2023-09-12T10:38:30;10.60;;;6.00;;
53293;SDS011;39181;53.440;5.644;2023-09-12T10:41:00;7.10;;;5.07;;
53293;SDS011;39181;53.440;5.644;2023-09-12T10:43:28;9.13;;;4.35;;
53293;SDS011;39181;53.440;5.644;2023-09-12T10:45:54;7.55;;;3.92;;
53293;SDS011;39181;53.440;5.644;2023-09-12T10:48:21;5.93;;;4.30;;
53293;SDS011;39181;53.440;5.644;2023-09-12T10:50:47;9.35;;;5.38;;
53293;SDS011;39181;53.440;5.644;2023-09-12T10:53:14;10.10;;;5.18;;
53293;SDS011;39181;53.440;5.644;2023-09-12T10:55:41;8.45;;;5.22;;
53293;SDS011;39181;53.440;5.644;2023-09-12T10:58:08;8.65;;;4.20;;
53293;SDS011;39181;53.440;5.644;2023-09-12T11:00:35;7.00;;;3.30;;
53293;SDS011;39181;53.440;5.644;2023-09-12T11:05:54;5.82;;;2.65;;
53293;SDS011;39181;53.440;5.644;2023-09-12T11:08:20;6.47;;;3.10;;
53293;SDS011;39181;53.440;5.644;2023-09-12T11:13:58;7.85;;;2.67;;
53293;SDS011;39181;53.440;5.644;2023-09-12T11:16:28;5.45;;;2.55;;
53293;SDS011;39181;53.440;5.644;2023-09-12T11:21:52;7.93;;;2.78;;
53293;SDS011;39181;53.440;5.644;2023-09-12T11:24:19;6.47;;;2.50;;
53293;SDS011;39181;53.440;5.644;2023-09-12T11:27:01;5.75;;;2.33;;
53293;SDS011;39181;53.440;5.644;2023-09-12T11:29:36;6.38;;;2.40;;
53293;SDS011;39181;53.440;5.644;2023-09-12T11:32:03;7.70;;;2.80;;
53293;SDS011;39181;53.440;5.644;2023-09-12T11:34:35;6.10;;;2.45;;
53293;SDS011;39181;53.440;5.644;2023-09-12T11:37:02;5.63;;;2.50;;
53293;SDS011;39181;53.440;5.644;2023-09-12T11:39:32;7.65;;;2.15;;
53293;SDS011;39181;53.440;5.644;2023-09-12T11:42:00;8.15;;;2.22;;
53293;SDS011;39181;53.440;5.644;2023-09-12T11:44:27;9.63;;;2.40;;
53293;SDS011;39181;53.440;5.644;2023-09-12T11:46:55;7.15;;;2.42;;
53293;SDS011;39181;53.440;5.644;2023-09-12T11:49:27;7.22;;;2.65;;
53293;SDS011;39181;53.440;5.644;2023-09-12T11:52:00;6.05;;;2.17;;
53293;SDS011;39181;53.440;5.644;2023-09-12T11:54:26;5.82;;;2.42;;
53293;SDS011;39181;53.440;5.644;2023-09-12T11:56:52;5.13;;;2.20;;
53293;SDS011;39181;53.440;5.644;2023-09-12T11:59:24;5.68;;;2.40;;
53293;SDS011;39181;53.440;5.644;2023-09-12T12:01:53;5.50;;;2.22;;
53293;SDS011;39181;53.440;5.644;2023-09-12T12:04:20;5.68;;;1.98;;
53293;SDS011;39181;53.440;5.644;2023-09-12T12:06:52;5.20;;;2.50;;
53293;SDS011;39181;53.440;5.644;2023-09-12T12:09:18;4.70;;;2.00;;
53293;SDS011;39181;53.440;5.644;2023-09-12T12:11:45;5.40;;;2.33;;
53293;SDS011;39181;53.440;5.644;2023-09-12T12:16:41;8.70;;;2.00;;
53293;SDS011;39181;53.440;5.644;2023-09-12T12:19:08;5.35;;;2.10;;
53293;SDS011;39181;53.440;5.644;2023-09-12T12:21:34;7.13;;;1.77;;
53293;SDS011;39181;53.440;5.644;2023-09-12T12:24:00;7.43;;;2.15;;
53293;SDS011;39181;53.440;5.644;2023-09-12T12:26:27;5.60;;;2.20;;
53293;SDS011;39181;53.440;5.644;2023-09-12T12:28:54;6.75;;;2.35;;
53293;SDS011;39181;53.440;5.644;2023-09-12T12:31:20;6.38;;;2.33;;
53293;SDS011;39181;53.440;5.644;2023-09-12T12:33:49;4.93;;;1.92;;
53293;SDS011;39181;53.440;5.644;2023-09-12T12:36:15;5.35;;;2.10;;
53293;SDS011;39181;53.440;5.644;2023-09-12T12:38:41;3.72;;;1.77;;
53293;SDS011;39181;53.440;5.644;2023-09-12T12:41:10;4.30;;;1.95;;
53293;SDS011;39181;53.440;5.644;2023-09-12T12:43:35;3.92;;;1.70;;
53293;SDS011;39181;53.440;5.644;2023-09-12T12:46:04;9.77;;;1.60;;
53293;SDS011;39181;53.440;5.644;2023-09-12T12:48:36;9.35;;;2.50;;
53293;SDS011;39181;53.440;5.644;2023-09-12T12:53:42;8.35;;;2.40;;
53293;SDS011;39181;53.440;5.644;2023-09-12T12:56:13;4.35;;;1.98;;
53293;SDS011;39181;53.440;5.644;2023-09-12T12:58:45;6.65;;;2.03;;
53293;SDS011;39181;53.440;5.644;2023-09-12T13:01:11;4.82;;;1.95;;
53293;SDS011;39181;53.440;5.644;2023-09-12T13:03:36;4.05;;;1.83;;
53293;SDS011;39181;53.440;5.644;2023-09-12T13:06:02;4.30;;;1.80;;
53293;SDS011;39181;53.440;5.644;2023-09-12T13:08:28;7.72;;;2.28;;
53293;SDS011;39181;53.440;5.644;2023-09-12T13:10:53;7.30;;;2.40;;
53293;SDS011;39181;53.440;5.644;2023-09-12T13:13:19;4.80;;;1.88;;
53293;SDS011;39181;53.440;5.644;2023-09-12T13:15:44;2.97;;;1.45;;
53293;SDS011;39181;53.440;5.644;2023-09-12T13:18:10;5.10;;;1.67;;
53293;SDS011;39181;53.440;5.644;2023-09-12T13:20:36;3.78;;;1.50;;
53293;SDS011;39181;53.440;5.644;2023-09-12T13:23:01;2.67;;;1.52;;
53293;SDS011;39181;53.440;5.644;2023-09-12T13:25:27;1.95;;;1.67;;
53293;SDS011;39181;53.440;5.644;2023-09-12T13:27:52;1.98;;;1.48;;
53293;SDS011;39181;53.440;5.644;2023-09-12T13:30:18;2.28;;;1.30;;
53293;SDS011;39181;53.440;5.644;2023-09-12T13:32:44;4.78;;;1.40;;
53293;SDS011;39181;53.440;5.644;2023-09-12T13:35:11;2.97;;;1.52;;
53293;SDS011;39181;53.440;5.644;2023-09-12T13:37:36;4.18;;;1.48;;
53293;SDS011;39181;53.440;5.644;2023-09-12T13:40:02;4.95;;;1.58;;
53293;SDS011;39181;53.440;5.644;2023-09-12T13:42:28;3.45;;;1.05;;
53293;SDS011;39181;53.440;5.644;2023-09-12T13:44:56;2.25;;;1.10;;
53293;SDS011;39181;53.440;5.644;2023-09-12T13:47:21;3.17;;;0.90;;
53293;SDS011;39181;53.440;5.644;2023-09-12T13:49:47;2.75;;;1.25;;
53293;SDS011;39181;53.440;5.644;2023-09-12T13:52:13;2.92;;;1.13;;
53293;SDS011;39181;53.440;5.644;2023-09-12T13:54:42;2.35;;;1.00;;
53293;SDS011;39181;53.440;5.644;2023-09-12T13:57:07;4.88;;;1.20;;
53293;SDS011;39181;53.440;5.644;2023-09-12T13:59:33;2.80;;;0.93;;
53293;SDS011;39181;53.440;5.644;2023-09-12T14:01:59;4.97;;;1.17;;
53293;SDS011;39181;53.440;5.644;2023-09-12T14:04:24;1.98;;;0.82;;
53293;SDS011;39181;53.440;5.644;2023-09-12T14:06:50;1.90;;;0.82;;
53293;SDS011;39181;53.440;5.644;2023-09-12T14:09:16;3.13;;;1.20;;
53293;SDS011;39181;53.440;5.644;2023-09-12T14:11:42;2.63;;;1.00;;
53293;SDS011;39181;53.440;5.644;2023-09-12T14:14:08;2.35;;;0.95;;
53293;SDS011;39181;53.440;5.644;2023-09-12T14:16:34;2.20;;;1.17;;
53293;SDS011;39181;53.440;5.644;2023-09-12T14:18:59;2.53;;;0.90;;
53293;SDS011;39181;53.440;5.644;2023-09-12T14:21:25;4.68;;;1.10;;
53293;SDS011;39181;53.440;5.644;2023-09-12T14:23:50;4.97;;;0.80;;
53293;SDS011;39181;53.440;5.644;2023-09-12T14:26:16;3.25;;;0.65;;
53293;SDS011;39181;53.440;5.644;2023-09-12T14:28:41;6.13;;;0.80;;
53293;SDS011;39181;53.440;5.644;2023-09-12T14:31:07;5.60;;;0.63;;
53293;SDS011;39181;53.440;5.644;2023-09-12T14:33:38;1.48;;;0.65;;
53293;SDS011;39181;53.440;5.644;2023-09-12T14:36:05;4.68;;;1.05;;
53293;SDS011;39181;53.440;5.644;2023-09-12T14:38:32;5.55;;;0.77;;
53293;SDS011;39181;53.440;5.644;2023-09-12T14:40:58;4.32;;;0.80;;
53293;SDS011;39181;53.440;5.644;2023-09-12T14:43:24;3.75;;;0.80;;
53293;SDS011;39181;53.440;5.644;2023-09-12T14:45:49;4.35;;;0.82;;
53293;SDS011;39181;53.440;5.644;2023-09-12T14:48:15;3.63;;;0.65;;